createdAt,value
2018-01-30T00:01:41.592Z,66.69
2018-01-30T00:04:14.101Z,68.40
2018-01-30T00:06:46.621Z,68.74
2018-01-30T00:09:19.107Z,68.56
2018-01-30T00:11:51.708Z,69.20
2018-01-30T00:14:24.222Z,68.20
2018-01-30T00:16:57.752Z,69.15
2018-01-30T00:19:30.255Z,67.87
2018-01-30T00:22:02.769Z,68.75
2018-01-30T00:24:35.257Z,66.74
2018-01-30T00:27:09.729Z,68.44
2018-01-30T00:29:42.239Z,67.88
2018-01-30T00:32:14.760Z,68.14
2018-01-30T00:34:47.265Z,67.58
2018-01-30T00:37:19.787Z,66.22
2018-01-30T00:39:52.399Z,67.60
2018-01-30T00:42:24.915Z,67.49
2018-01-30T00:44:57.395Z,69.16
2018-01-30T00:47:29.908Z,68.42
2018-01-30T00:50:02.401Z,68.85
2018-01-30T00:52:34.941Z,67.67
2018-01-30T00:55:07.444Z,68.02
2018-01-30T00:57:39.964Z,68.80
2018-01-30T01:00:12.460Z,68.79
2018-01-30T01:02:44.987Z,68.60
2018-01-30T01:05:17.484Z,68.20
2018-01-30T01:07:49.996Z,68.64
2018-01-30T01:10:22.471Z,68.06
2018-01-30T01:12:55.014Z,68.75
2018-01-30T01:15:27.515Z,68.52
2018-01-30T01:18:00.029Z,68.03
2018-01-30T01:20:32.523Z,67.94
2018-01-30T01:23:05.031Z,68.32
2018-01-30T01:25:37.520Z,67.70
2018-01-30T01:28:10.030Z,66.03
2018-01-30T01:30:42.530Z,68.37
2018-01-30T01:33:15.046Z,68.54
2018-01-30T01:35:47.535Z,67.61
2018-01-30T01:38:20.057Z,68.16
2018-01-30T01:40:52.545Z,67.50
2018-01-30T01:43:25.084Z,67.92
2018-01-30T01:45:57.579Z,67.92
2018-01-30T01:48:30.090Z,67.49
2018-01-30T01:51:02.579Z,66.90
2018-01-30T01:53:35.082Z,67.04
2018-01-30T01:56:07.570Z,68.05
2018-01-30T01:58:40.092Z,68.04
2018-01-30T02:01:12.612Z,67.52
2018-01-30T02:03:45.124Z,67.42
2018-01-30T02:06:17.620Z,67.46
2018-01-30T02:08:50.141Z,66.47
2018-01-30T02:11:22.623Z,67.32
2018-01-30T02:13:55.961Z,67.37
2018-01-30T02:16:28.463Z,67.13
2018-01-30T02:19:00.981Z,66.81
2018-01-30T02:21:33.476Z,67.53
2018-01-30T02:24:05.982Z,67.48
2018-01-30T02:26:38.471Z,67.59
2018-01-30T02:29:10.984Z,67.96
2018-01-30T02:31:43.475Z,68.34
2018-01-30T02:34:16.046Z,67.92
2018-01-30T02:36:48.558Z,67.79
2018-01-30T02:39:21.087Z,68.31
2018-01-30T02:41:53.590Z,68.13
2018-01-30T02:44:26.110Z,67.65
2018-01-30T02:46:58.630Z,67.68
2018-01-30T02:49:31.126Z,67.85
2018-01-30T02:52:03.668Z,67.82
2018-01-30T02:54:36.241Z,67.67
2018-01-30T02:57:08.774Z,66.18
2018-01-30T02:59:41.264Z,67.62
2018-01-30T03:02:13.777Z,67.25
2018-01-30T03:04:46.272Z,65.59
2018-01-30T03:07:18.782Z,67.81
2018-01-30T03:09:51.289Z,67.82
2018-01-30T03:12:23.800Z,67.60
2018-01-30T03:14:56.285Z,66.97
2018-01-30T03:17:28.786Z,67.30
2018-01-30T03:20:01.281Z,66.27
2018-01-30T03:22:33.789Z,67.56
2018-01-30T03:25:06.276Z,68.03
2018-01-30T03:27:38.782Z,67.83
2018-01-30T03:30:11.283Z,67.42
2018-01-30T03:32:43.809Z,66.94
2018-01-30T03:35:16.296Z,67.74
2018-01-30T03:37:48.803Z,67.77
2018-01-30T03:40:21.290Z,65.17
2018-01-30T03:42:53.799Z,67.98
2018-01-30T03:45:26.282Z,68.26
2018-01-30T03:47:58.812Z,67.99
2018-01-30T03:50:31.303Z,67.46
2018-01-30T03:53:03.815Z,67.72
2018-01-30T03:55:36.311Z,67.57
2018-01-30T03:58:08.822Z,67.41
2018-01-30T04:00:41.319Z,67.03
2018-01-30T04:03:13.835Z,67.49
2018-01-30T04:05:46.319Z,64.28
2018-01-30T04:08:18.857Z,67.70
2018-01-30T04:10:51.348Z,67.32
2018-01-30T04:13:23.856Z,66.73
2018-01-30T04:15:56.351Z,67.48
2018-01-30T04:18:28.864Z,67.65
2018-01-30T04:21:01.403Z,67.26
2018-01-30T04:23:33.923Z,67.39
2018-01-30T04:26:06.420Z,67.35
2018-01-30T04:28:38.932Z,67.62
2018-01-30T04:31:11.443Z,67.49
2018-01-30T04:33:43.957Z,67.23
2018-01-30T04:36:16.446Z,67.06
2018-01-30T04:38:48.972Z,67.54
2018-01-30T04:41:21.470Z,67.40
2018-01-30T04:43:53.975Z,67.62
2018-01-30T04:46:26.505Z,65.85
2018-01-30T04:48:59.057Z,67.97
2018-01-30T04:51:31.571Z,67.51
2018-01-30T04:54:04.082Z,67.45
2018-01-30T04:56:36.586Z,67.35
2018-01-30T04:59:09.101Z,67.86
2018-01-30T05:01:41.601Z,67.69
2018-01-30T05:04:14.118Z,67.65
2018-01-30T05:06:46.604Z,67.61
2018-01-30T05:09:19.116Z,67.65
2018-01-30T05:11:51.607Z,67.87
2018-01-30T05:14:24.116Z,68.31
2018-01-30T05:16:56.639Z,68.53
2018-01-30T05:19:29.151Z,68.12
2018-01-30T05:22:01.637Z,67.27
2018-01-30T05:24:34.224Z,66.24
2018-01-30T05:27:06.716Z,68.18
2018-01-30T05:29:39.232Z,66.61
2018-01-30T05:32:11.729Z,67.80
2018-01-30T05:34:44.237Z,67.88
2018-01-30T05:37:16.750Z,67.95
2018-01-30T05:39:49.254Z,67.72
2018-01-30T05:42:21.772Z,67.82
2018-01-30T05:44:54.303Z,67.62
2018-01-30T05:47:26.809Z,67.89
2018-01-30T05:49:59.338Z,68.11
2018-01-30T05:52:31.826Z,67.89
2018-01-30T05:55:04.335Z,67.59
2018-01-30T05:57:36.826Z,67.68
2018-01-30T06:00:09.344Z,67.64
2018-01-30T06:02:41.839Z,67.64
2018-01-30T06:05:14.345Z,67.50
2018-01-30T06:07:46.838Z,67.66
2018-01-30T06:10:19.372Z,67.61
2018-01-30T06:12:51.864Z,67.71
2018-01-30T06:15:24.372Z,67.77
2018-01-30T06:17:56.872Z,68.04
2018-01-30T06:20:29.492Z,66.94
2018-01-30T06:23:02.016Z,67.62
2018-01-30T06:25:34.529Z,66.97
2018-01-30T06:28:07.066Z,67.45
2018-01-30T06:30:39.556Z,67.79
2018-01-30T06:33:12.061Z,67.59
2018-01-30T06:35:44.607Z,67.98
2018-01-30T06:38:17.148Z,68.07
2018-01-30T06:40:49.646Z,67.64
2018-01-30T06:43:22.152Z,67.56
2018-01-30T06:45:54.670Z,67.27
2018-01-30T06:48:27.185Z,65.90
2018-01-30T06:50:59.678Z,68.34
2018-01-30T06:53:32.266Z,67.64
2018-01-30T06:56:04.760Z,67.83
2018-01-30T06:58:37.268Z,67.77
2018-01-30T07:01:09.763Z,67.79
2018-01-30T07:03:42.299Z,68.17
2018-01-30T07:06:14.818Z,67.94
2018-01-30T07:08:47.347Z,67.66
2018-01-30T07:11:19.834Z,67.75
2018-01-30T07:13:52.352Z,67.83
2018-01-30T07:16:24.852Z,67.78
2018-01-30T07:18:57.372Z,67.83
2018-01-30T07:21:29.871Z,68.19
2018-01-30T07:24:02.375Z,67.95
2018-01-30T07:26:34.871Z,67.88
2018-01-30T07:29:07.425Z,67.66
2018-01-30T07:31:39.916Z,66.91
2018-01-30T07:34:12.437Z,67.71
2018-01-30T07:36:44.925Z,68.01
2018-01-30T07:39:17.447Z,67.47
2018-01-30T07:41:49.956Z,65.83
2018-01-30T07:44:22.483Z,67.72
2018-01-30T07:46:57.995Z,67.87
2018-01-30T07:49:30.509Z,67.75
2018-01-30T07:52:03.069Z,66.83
2018-01-30T07:54:35.575Z,67.61
2018-01-30T07:57:08.076Z,67.63
2018-01-30T07:59:40.618Z,67.45
2018-01-30T08:02:13.102Z,67.31
2018-01-30T08:04:45.616Z,67.57
2018-01-30T08:07:18.112Z,67.95
2018-01-30T08:09:50.643Z,67.53
2018-01-30T08:12:23.128Z,67.36
2018-01-30T08:14:55.635Z,67.72
2018-01-30T08:17:28.153Z,67.28
2018-01-30T08:20:00.726Z,67.43
2018-01-30T08:22:33.267Z,67.28
2018-01-30T08:25:05.772Z,63.04
2018-01-30T08:27:38.255Z,67.21
2018-01-30T08:30:10.780Z,67.40
2018-01-30T08:32:43.315Z,67.20
2018-01-30T08:35:15.859Z,68.07
2018-01-30T08:37:48.359Z,67.45
2018-01-30T08:40:20.884Z,67.68
2018-01-30T08:42:53.368Z,68.09
2018-01-30T08:45:25.883Z,67.42
2018-01-30T08:47:58.691Z,67.62
2018-01-30T08:50:31.208Z,67.53
2018-01-30T08:53:03.700Z,67.78
2018-01-30T08:55:36.210Z,67.02
2018-01-30T08:58:08.715Z,67.83
2018-01-30T09:00:41.237Z,67.87
2018-01-30T09:03:13.724Z,67.53
2018-01-30T09:05:46.240Z,67.16
2018-01-30T09:08:18.726Z,64.81
2018-01-30T09:10:51.240Z,67.37
2018-01-30T09:13:23.731Z,66.87
2018-01-30T09:15:56.236Z,66.87
2018-01-30T09:18:28.718Z,67.37
2018-01-30T09:21:01.232Z,66.74
2018-01-30T09:23:33.729Z,66.92
2018-01-30T09:26:06.248Z,67.34
2018-01-30T09:28:38.739Z,67.66
2018-01-30T09:31:11.249Z,67.29
2018-01-30T09:33:43.737Z,67.72
2018-01-30T09:36:16.247Z,65.62
2018-01-30T09:38:48.739Z,67.77
2018-01-30T09:41:21.247Z,67.51
2018-01-30T09:43:53.749Z,67.44
2018-01-30T09:46:26.271Z,65.40
2018-01-30T09:48:58.757Z,67.64
2018-01-30T09:51:31.287Z,67.42
2018-01-30T09:54:03.796Z,67.72
2018-01-30T09:56:36.290Z,67.15
2018-01-30T09:59:08.822Z,64.56
2018-01-30T10:01:41.319Z,67.10
2018-01-30T10:04:13.850Z,67.09
2018-01-30T10:06:46.349Z,67.07
2018-01-30T10:09:18.864Z,65.17
2018-01-30T10:11:51.369Z,66.64
2018-01-30T10:14:23.888Z,61.25
2018-01-30T10:16:56.380Z,67.40
2018-01-30T10:19:28.900Z,67.40
2018-01-30T10:22:01.396Z,66.59
2018-01-30T10:24:33.924Z,66.35
2018-01-30T10:27:06.417Z,66.90
2018-01-30T10:29:38.930Z,66.79
2018-01-30T10:32:11.423Z,65.97
2018-01-30T10:34:43.937Z,65.93
2018-01-30T10:37:16.430Z,66.25
2018-01-30T10:39:48.943Z,66.41
2018-01-30T10:42:21.447Z,66.54
2018-01-30T10:44:53.956Z,66.17
2018-01-30T10:47:26.470Z,64.28
2018-01-30T10:49:58.998Z,65.96
2018-01-30T10:52:31.491Z,66.23
2018-01-30T10:55:04.011Z,65.39
2018-01-30T10:57:36.515Z,66.26
2018-01-30T11:00:09.033Z,66.53
2018-01-30T11:02:41.521Z,67.39
2018-01-30T11:05:14.032Z,64.79
2018-01-30T11:07:46.527Z,66.87
2018-01-30T11:10:19.068Z,66.66
2018-01-30T11:12:51.561Z,66.75
2018-01-30T11:15:24.066Z,64.23
2018-01-30T11:17:56.553Z,67.11
2018-01-30T11:20:29.066Z,65.97
2018-01-30T11:23:01.566Z,66.36
2018-01-30T11:25:34.078Z,66.82
2018-01-30T11:28:06.576Z,65.70
2018-01-30T11:30:39.101Z,65.81
2018-01-30T11:33:11.604Z,66.43
2018-01-30T11:35:44.184Z,63.24
2018-01-30T11:38:16.676Z,66.96
2018-01-30T11:40:49.193Z,61.13
2018-01-30T11:43:21.699Z,66.91
2018-01-30T11:45:54.224Z,66.27
2018-01-30T11:48:26.719Z,63.14
2018-01-30T11:50:59.231Z,66.53
2018-01-30T11:53:31.736Z,66.58
2018-01-30T11:56:04.252Z,64.70
2018-01-30T11:58:36.736Z,66.12
2018-01-30T12:01:09.260Z,65.97
2018-01-30T12:03:41.756Z,66.78
2018-01-30T12:06:14.276Z,65.63
2018-01-30T12:08:46.795Z,65.79
2018-01-30T12:11:19.322Z,65.48
2018-01-30T12:13:51.815Z,63.58
2018-01-30T12:16:24.339Z,65.67
2018-01-30T12:18:56.859Z,63.46
2018-01-30T12:21:29.386Z,66.07
2018-01-30T12:24:01.886Z,64.87
2018-01-30T12:26:34.463Z,64.77
2018-01-30T12:29:06.927Z,65.12
2018-01-30T12:31:39.449Z,65.57
2018-01-30T12:34:11.936Z,64.97
2018-01-30T12:36:44.452Z,60.50
2018-01-30T12:39:16.954Z,65.77
2018-01-30T12:41:49.472Z,65.53
2018-01-30T12:44:21.976Z,63.04
2018-01-30T12:46:54.495Z,65.31
2018-01-30T12:49:27.002Z,65.88
2018-01-30T12:51:59.511Z,65.49
2018-01-30T12:54:31.995Z,58.52
2018-01-30T12:57:04.518Z,65.26
2018-01-30T12:59:37.013Z,65.33
2018-01-30T13:02:09.626Z,64.98
2018-01-30T13:04:42.035Z,65.85
2018-01-30T13:07:14.548Z,65.89
2018-01-30T13:09:47.031Z,65.98
2018-01-30T13:12:19.556Z,65.56
2018-01-30T13:14:52.060Z,66.22
2018-01-30T13:17:24.578Z,64.34
2018-01-30T13:19:57.108Z,64.10
2018-01-30T13:22:29.630Z,65.46
2018-01-30T13:25:02.156Z,65.49
2018-01-30T13:27:34.668Z,64.30
2018-01-30T13:30:07.230Z,64.35
2018-01-30T13:32:39.725Z,64.76
2018-01-30T13:35:12.242Z,64.88
2018-01-30T13:37:44.754Z,62.41
2018-01-30T13:40:17.271Z,60.24
2018-01-30T13:42:49.761Z,63.86
2018-01-30T13:45:22.288Z,64.09
2018-01-30T13:47:54.807Z,64.77
2018-01-30T13:50:27.335Z,64.76
2018-01-30T13:52:59.834Z,64.87
2018-01-30T13:55:32.354Z,65.21
2018-01-30T13:58:04.871Z,63.23
2018-01-30T14:00:37.374Z,65.68
2018-01-30T14:03:09.867Z,65.10
2018-01-30T14:05:42.368Z,62.79
2018-01-30T14:08:14.871Z,65.69
2018-01-30T14:10:47.390Z,65.33
2018-01-30T14:13:19.880Z,63.97
2018-01-30T14:15:52.400Z,64.09
2018-01-30T14:18:24.928Z,65.74
2018-01-30T14:20:57.427Z,65.54
2018-01-30T14:23:29.919Z,64.70
2018-01-30T14:26:02.436Z,63.90
2018-01-30T14:28:34.929Z,64.38
2018-01-30T14:31:07.452Z,65.25
2018-01-30T14:33:39.942Z,65.30
2018-01-30T14:36:12.450Z,64.88
2018-01-30T14:38:44.937Z,65.01
2018-01-30T14:41:17.471Z,64.80
2018-01-30T14:43:49.964Z,64.88
2018-01-30T14:46:22.462Z,64.50
2018-01-30T14:48:54.976Z,64.71
2018-01-30T14:51:27.488Z,64.68
2018-01-30T14:53:59.994Z,65.46
2018-01-30T14:56:32.496Z,64.97
2018-01-30T14:59:04.991Z,64.96
2018-01-30T15:01:37.508Z,64.71
2018-01-30T15:04:10.010Z,65.35
2018-01-30T15:06:42.528Z,65.42
2018-01-30T15:09:15.026Z,65.37
2018-01-30T15:11:47.532Z,65.00
2018-01-30T15:14:20.023Z,65.44
2018-01-30T15:16:52.534Z,60.31
2018-01-30T15:19:26.686Z,65.05
2018-01-30T15:21:59.202Z,64.88
2018-01-30T15:24:31.708Z,64.53
2018-01-30T15:27:04.220Z,64.59
2018-01-30T15:29:36.706Z,64.49
2018-01-30T15:32:09.215Z,64.88
2018-01-30T15:34:41.698Z,64.94
2018-01-30T15:37:14.218Z,64.39
2018-01-30T15:39:46.783Z,64.59
2018-01-30T15:42:19.267Z,64.81
2018-01-30T15:44:51.746Z,64.97
2018-01-30T15:47:24.272Z,64.39
2018-01-30T15:49:56.805Z,64.84
2018-01-30T15:52:29.326Z,64.57
2018-01-30T15:55:01.840Z,64.92
2018-01-30T15:57:34.359Z,64.62
2018-01-30T16:00:06.850Z,63.98
2018-01-30T16:02:39.379Z,62.02
2018-01-30T16:05:11.864Z,65.01
2018-01-30T16:07:44.379Z,64.85
2018-01-30T16:10:16.861Z,65.30
2018-01-30T16:12:49.374Z,65.30
2018-01-30T16:15:21.879Z,65.43
2018-01-30T16:17:54.380Z,65.28
2018-01-30T16:20:27.819Z,65.29
2018-01-30T16:23:00.361Z,64.69
2018-01-30T16:25:32.852Z,65.37
2018-01-30T16:28:05.748Z,65.25
2018-01-30T16:30:38.244Z,65.41
2018-01-30T16:33:10.765Z,65.18
2018-01-30T16:35:43.269Z,65.54
2018-01-30T16:38:15.779Z,65.41
2018-01-30T16:40:48.291Z,65.26
2018-01-30T16:43:20.815Z,65.65
2018-01-30T16:45:53.305Z,65.69
2018-01-30T16:48:27.928Z,65.54
2018-01-30T16:51:00.463Z,65.31
2018-01-30T16:53:32.993Z,65.28
2018-01-30T16:56:05.502Z,65.27
2018-01-30T16:58:38.021Z,65.45
2018-01-30T17:01:10.537Z,65.30
2018-01-30T17:03:43.076Z,65.40
2018-01-30T17:06:15.719Z,65.54
2018-01-30T17:08:48.234Z,65.50
2018-01-30T17:11:20.817Z,65.62
2018-01-30T17:13:53.447Z,65.56
2018-01-30T17:16:25.984Z,65.58
2018-01-30T17:18:58.625Z,65.60
2018-01-30T17:21:31.175Z,65.65
2018-01-30T17:24:03.833Z,65.84
2018-01-30T17:26:36.343Z,65.64
2018-01-30T17:29:08.836Z,65.62
2018-01-30T17:31:41.721Z,65.50
2018-01-30T17:34:14.227Z,65.71
2018-01-30T17:36:46.779Z,65.52
2018-01-30T17:39:19.266Z,65.62
2018-01-30T17:41:51.788Z,65.63
2018-01-30T17:44:24.288Z,65.75
2018-01-30T17:46:56.833Z,65.64
2018-01-30T17:49:29.318Z,65.73
2018-01-30T17:52:01.828Z,65.57
2018-01-30T17:54:34.343Z,65.60
2018-01-30T17:57:06.863Z,65.80
2018-01-30T17:59:39.358Z,65.89
2018-01-30T18:02:11.863Z,65.92
2018-01-30T18:04:44.892Z,65.76
2018-01-30T18:07:17.597Z,65.16
2018-01-30T18:09:50.998Z,65.69
2018-01-30T18:12:23.515Z,65.60
2018-01-30T18:14:56.007Z,65.55
2018-01-30T18:17:28.520Z,65.84
2018-01-30T18:20:01.022Z,65.78
2018-01-30T18:22:33.533Z,65.49
2018-01-30T18:25:06.022Z,65.86
2018-01-30T18:27:38.528Z,65.87
2018-01-30T18:30:11.272Z,65.84
2018-01-30T18:32:43.831Z,65.82
2018-01-30T18:35:16.420Z,65.76
2018-01-30T18:37:48.963Z,65.65
2018-01-30T18:40:21.452Z,65.67
2018-01-30T18:42:54.037Z,65.62
2018-01-30T18:45:26.903Z,65.44
2018-01-30T18:48:00.550Z,65.16
2018-01-30T18:50:34.830Z,65.48
2018-01-30T18:53:07.329Z,65.36
2018-01-30T18:55:40.306Z,65.49
2018-01-30T18:58:12.851Z,65.50
2018-01-30T19:00:45.355Z,65.62
2018-01-30T19:03:18.855Z,65.63
2018-01-30T19:05:51.347Z,65.48
2018-01-30T19:08:23.852Z,65.63
2018-01-30T19:10:56.498Z,65.51
2018-01-30T19:13:29.095Z,65.47
2018-01-30T19:16:01.594Z,65.55
2018-01-30T19:18:34.232Z,65.48
2018-01-30T19:21:06.723Z,65.53
2018-01-30T19:23:39.246Z,65.58
2018-01-30T19:26:11.739Z,65.62
2018-01-30T19:28:44.253Z,65.65
2018-01-30T19:31:16.750Z,65.75
2018-01-30T19:33:49.267Z,65.86
2018-01-30T19:36:21.766Z,65.77
2018-01-30T19:38:54.305Z,65.86
2018-01-30T19:41:26.788Z,65.92
2018-01-30T19:43:59.298Z,66.02
2018-01-30T19:46:31.799Z,66.02
2018-01-30T19:49:04.304Z,65.81
2018-01-30T19:51:36.817Z,65.99
2018-01-30T19:54:09.322Z,65.74
2018-01-30T19:56:41.824Z,65.74
2018-01-30T19:59:14.348Z,65.76
2018-01-30T20:01:46.852Z,65.58
2018-01-30T20:04:19.368Z,65.84
2018-01-30T20:06:51.866Z,65.96
2018-01-30T20:09:24.441Z,65.85
2018-01-30T20:11:57.210Z,65.89
2018-01-30T20:14:29.727Z,65.71
2018-01-30T20:17:02.219Z,65.55
2018-01-30T20:19:34.741Z,65.57
2018-01-30T20:22:07.247Z,65.56
2018-01-30T20:24:39.785Z,65.54
2018-01-30T20:27:12.279Z,65.60
2018-01-30T20:29:44.948Z,65.68
2018-01-30T20:32:17.470Z,65.52
2018-01-30T20:34:49.973Z,65.61
2018-01-30T20:37:23.413Z,65.47
2018-01-30T20:39:55.908Z,65.74
2018-01-30T20:42:28.432Z,65.96
2018-01-30T20:45:00.948Z,65.78
2018-01-30T20:47:33.468Z,66.04
2018-01-30T20:50:05.968Z,66.04
2018-01-30T20:52:38.489Z,65.90
2018-01-30T20:55:10.990Z,65.99
2018-01-30T20:57:43.508Z,65.92
2018-01-30T21:00:16.021Z,65.94
2018-01-30T21:02:48.555Z,65.94
2018-01-30T21:05:21.060Z,65.83
2018-01-30T21:07:53.567Z,65.60
2018-01-30T21:10:26.089Z,65.70
2018-01-30T21:12:58.613Z,65.87
2018-01-30T21:15:31.619Z,65.96
2018-01-30T21:18:04.169Z,65.94
2018-01-30T21:20:36.679Z,65.97
2018-01-30T21:23:09.205Z,65.74
2018-01-30T21:25:41.702Z,65.85
2018-01-30T21:28:14.213Z,65.70
2018-01-30T21:30:47.307Z,65.89
2018-01-30T21:33:19.860Z,66.18
2018-01-30T21:35:53.305Z,66.17
2018-01-30T21:38:27.491Z,65.57
2018-01-30T21:41:00.259Z,66.44
2018-01-30T21:43:33.135Z,66.54
2018-01-30T21:46:05.904Z,66.42
2018-01-30T21:48:38.822Z,66.69
2018-01-30T21:51:11.659Z,66.49
2018-01-30T21:53:44.698Z,66.54
2018-01-30T21:56:17.611Z,66.71
2018-01-30T21:58:50.168Z,66.14
2018-01-30T22:01:23.459Z,66.47
2018-01-30T22:03:55.975Z,66.14
2018-01-30T22:06:28.473Z,66.41
2018-01-30T22:09:01.033Z,66.60
2018-01-30T22:11:33.531Z,66.68
2018-01-30T22:14:06.046Z,66.50
2018-01-30T22:16:39.373Z,66.56
2018-01-30T22:19:11.882Z,66.16
2018-01-30T22:21:44.390Z,66.15
2018-01-30T22:24:16.908Z,66.40
2018-01-30T22:26:49.428Z,66.60
2018-01-30T22:29:21.942Z,66.55
2018-01-30T22:31:54.428Z,66.52
2018-01-30T22:34:26.941Z,66.49
2018-01-30T22:36:59.441Z,66.28
2018-01-30T22:39:31.954Z,66.21
2018-01-30T22:42:04.454Z,66.09
2018-01-30T22:44:36.986Z,66.10
